Time;durP1;ratioP1;P1;durP2;ratioP2;P2;SDS_P1;SDS_P2;PMS_P1;PMS_P2;Temp;Humidity;BMP_temperature;BMP_pressure;BME280_temperature;BME280_humidity;BME280_pressure;Samples;Min_cycle;Max_cycle;Signal;HPM_P1;HPM_P2
2023/04/05 00:02:28;;;;;;;;;9.67;7.67;;;;;-4.04;84.02;98989.41;4800702;28;102045;-72
2023/04/05 00:04:58;;;;;;;;;13.00;9.00;;;;;-4.09;84.44;98983.59;4801543;29;102346;-72
2023/04/05 00:07:39;;;;;;;;;3.33;1.00;;;;;-4.12;84.09;98982.00;4800770;28;107884;-72
2023/04/05 00:10:23;;;;;;;;;11.67;7.00;;;;;-4.23;84.61;98973.06;4798511;29;102391;-72
2023/04/05 00:13:21;;;;;;;;;13.33;6.67;;;;;-4.19;84.03;98974.59;4795652;29;101795;-73
2023/04/05 00:16:11;;;;;;;;;7.33;6.33;;;;;-4.20;84.41;98964.97;4802419;28;103663;-73
2023/04/05 00:19:01;;;;;;;;;4.00;3.67;;;;;-4.25;83.64;98965.28;4810102;28;104144;-73
2023/04/05 00:22:02;;;;;;;;;8.33;2.67;;;;;-4.35;83.98;98960.69;4803460;28;102273;-73
2023/04/05 00:24:42;;;;;;;;;12.00;10.00;;;;;-4.37;85.23;98963.44;4802310;28;102449;-73
2023/04/05 00:27:09;;;;;;;;;6.33;5.33;;;;;-4.40;84.66;98966.25;4804079;29;102239;-74
2023/04/05 00:29:36;;;;;;;;;3.00;1.00;;;;;-4.42;85.72;98956.75;4805823;28;104009;-74
2023/04/05 00:32:04;;;;;;;;;14.00;11.00;;;;;-4.44;86.74;98958.63;4803729;28;102837;-74
2023/04/05 00:34:32;;;;;;;;;9.67;7.67;;;;;-4.48;86.65;98957.13;4801487;28;102301;-73
2023/04/05 00:36:59;;;;;;;;;10.33;9.33;;;;;-4.48;85.86;98960.63;4800889;29;102072;-73
2023/04/05 00:39:26;;;;;;;;;13.00;7.00;;;;;-4.47;85.42;98956.19;4802685;29;104134;-73
2023/04/05 00:41:54;;;;;;;;;13.67;7.00;;;;;-4.54;84.87;98953.94;4798430;28;102729;-76
2023/04/05 00:44:21;;;;;;;;;15.00;12.67;;;;;-4.51;84.75;98951.13;4798661;28;101991;-75
2023/04/05 00:46:49;;;;;;;;;10.67;7.00;;;;;-4.65;84.40;98937.97;4801068;28;103371;-75
2023/04/05 00:49:16;;;;;;;;;9.00;9.00;;;;;-4.54;83.93;98946.03;4796791;28;104077;-75
2023/04/05 00:51:44;;;;;;;;;14.33;12.67;;;;;-4.54;84.01;98953.94;4810486;29;102345;-73
2023/04/05 00:54:12;;;;;;;;;20.33;16.00;;;;;-4.59;84.28;98949.91;4801360;29;102889;-76
2023/04/05 00:56:40;;;;;;;;;23.00;13.00;;;;;-4.58;83.91;98952.44;4803370;29;102156;-74
2023/04/05 00:59:07;;;;;;;;;7.00;6.67;;;;;-4.60;84.77;98940.31;4806648;28;104030;-75
2023/04/05 01:01:39;;;;;;;;;13.00;9.33;;;;;-4.64;84.46;98944.91;4801828;28;102562;-75
2023/04/05 01:04:07;;;;;;;;;19.67;15.67;;;;;-4.67;85.81;98946.91;4800247;29;102005;-75
2023/04/05 01:06:57;;;;;;;;;19.00;18.00;;;;;-4.71;87.68;98941.00;4799367;29;103154;-75
2023/04/05 01:09:48;;;;;;;;;44.00;33.25;;;;;-4.76;89.32;98943.06;4796519;28;109729;-75
2023/04/05 01:12:36;;;;;;;;;47.50;36.50;;;;;-4.73;87.82;98937.63;4797558;29;102193;-75
2023/04/05 01:15:22;;;;;;;;;31.50;28.25;;;;;-4.68;88.07;98932.88;4800021;28;101928;-76
2023/04/05 01:18:17;;;;;;;;;30.67;23.67;;;;;-4.51;87.36;98948.50;4794463;29;102014;-75
2023/04/05 01:21:32;;;;;;;;;31.50;27.00;;;;;-4.41;88.00;98942.63;4795483;28;103631;-75
2023/04/05 01:24:31;;;;;;;;;41.25;36.25;;;;;-4.33;89.71;98943.81;4797714;28;102401;-75
2023/04/05 01:27:09;;;;;;;;;48.00;39.25;;;;;-4.24;89.85;98937.09;4801748;28;102113;-75
2023/04/05 01:29:36;;;;;;;;;36.25;32.75;;;;;-4.15;89.33;98931.19;4804600;28;102244;-75
2023/04/05 01:32:16;;;;;;;;;29.33;28.00;;;;;-4.14;88.76;98915.25;4802387;29;104250;-76
2023/04/05 01:35:06;;;;;;;;;24.67;21.00;;;;;-3.97;88.62;98931.78;4802186;28;103144;-76
2023/04/05 01:37:35;;;;;;;;;11.33;9.00;;;;;-3.95;88.02;98914.00;4798845;28;102391;-74
2023/04/05 01:40:03;;;;;;;;;33.00;26.00;;;;;-3.84;87.58;98928.22;4805505;29;102411;-75
2023/04/05 01:42:30;;;;;;;;;21.00;18.33;;;;;-3.78;86.90;98930.41;4800832;28;104278;-75
2023/04/05 01:44:58;;;;;;;;;18.33;14.00;;;;;-3.70;87.38;98936.03;4802051;29;102272;-76
2023/04/05 01:47:25;;;;;;;;;15.67;12.33;;;;;-3.68;86.57;98923.56;4804451;29;102006;-76
2023/04/05 01:49:52;;;;;;;;;16.00;13.00;;;;;-3.60;87.07;98920.38;4802697;28;102226;-75
2023/04/05 01:52:19;;;;;;;;;21.67;14.67;;;;;-3.52;86.77;98925.16;4798862;28;103929;-75
2023/04/05 01:54:46;;;;;;;;;11.67;9.67;;;;;-3.46;85.94;98919.44;4805996;29;102080;-75
2023/04/05 01:57:13;;;;;;;;;13.00;9.67;;;;;-3.49;86.56;98914.38;4802888;28;102430;-75
2023/04/05 01:59:39;;;;;;;;;18.33;16.00;;;;;-3.41;87.75;98920.81;4804180;28;102124;-75
2023/04/05 02:02:06;;;;;;;;;17.67;14.67;;;;;-3.34;87.39;98924.75;4799836;28;104196;-75
2023/04/05 02:04:34;;;;;;;;;60.00;48.00;;;;;-3.42;82.68;98915.66;4803607;28;102373;-74
2023/04/05 02:07:01;;;;;;;;;52.25;44.25;;;;;-3.32;83.80;98906.97;4809227;28;101948;-75
2023/04/05 02:09:28;;;;;;;;;34.67;29.67;;;;;-3.26;83.06;98905.69;4813784;28;102063;-74
2023/04/05 02:11:56;;;;;;;;;43.00;33.00;;;;;-3.27;82.93;98896.06;4809794;29;108826;-76
2023/04/05 02:14:24;;;;;;;;;54.25;47.00;;;;;-3.38;85.10;98896.84;4804516;28;102597;-75
2023/04/05 02:16:55;;;;;;;;;71.25;53.00;;;;;-3.52;86.81;98890.81;4808538;28;102882;-76
2023/04/05 02:19:22;;;;;;;;;56.50;45.75;;;;;-3.50;87.06;98894.19;4804717;28;102275;-76
2023/04/05 02:21:49;;;;;;;;;73.00;52.75;;;;;-3.51;85.81;98905.72;4804394;29;104287;-76
2023/04/05 02:24:19;;;;;;;;;99.00;69.75;;;;;-3.58;86.67;98907.09;4803058;29;102788;-76
2023/04/05 02:26:46;;;;;;;;;100.00;71.25;;;;;-3.54;85.68;98913.84;4805848;29;102971;-76
2023/04/05 02:29:13;;;;;;;;;76.50;57.25;;;;;-3.48;84.93;98902.84;4800906;28;102307;-76
2023/04/05 02:31:41;;;;;;;;;66.25;51.00;;;;;-3.44;83.63;98901.69;4804792;29;103964;-75
2023/04/05 02:34:08;;;;;;;;;45.25;28.00;;;;;-3.39;84.61;98900.44;4804522;28;101963;-76
2023/04/05 02:36:35;;;;;;;;;61.75;45.50;;;;;-3.51;86.30;98882.75;4805502;29;102378;-75
2023/04/05 02:39:03;;;;;;;;;53.75;35.00;;;;;-3.34;84.65;98897.47;4806313;28;102496;-74
2023/04/05 02:41:30;;;;;;;;;35.00;30.33;;;;;-3.33;85.05;98896.53;4803321;28;104093;-75
2023/04/05 02:43:58;;;;;;;;;55.75;47.25;;;;;-3.40;85.61;98890.81;4810297;29;102210;-76
2023/04/05 02:46:28;;;;;;;;;50.50;43.50;;;;;-3.40;85.17;98882.88;4804826;29;102891;-76
2023/04/05 02:48:55;;;;;;;;;35.50;27.00;;;;;-3.34;84.59;98878.97;4815307;28;102148;-76
2023/04/05 02:51:22;;;;;;;;;33.33;26.00;;;;;-3.37;85.02;98880.00;4802408;29;104051;-76
2023/04/05 02:53:50;;;;;;;;;67.50;49.00;;;;;-3.36;85.63;98892.28;4802705;29;104167;-76
2023/04/05 02:56:17;;;;;;;;;70.50;52.75;;;;;-3.54;84.71;98869.75;4805463;28;102185;-76
2023/04/05 02:58:44;;;;;;;;;65.75;47.50;;;;;-3.40;85.30;98887.31;4802601;29;102088;-77
2023/04/05 03:01:11;;;;;;;;;50.50;40.00;;;;;-3.33;85.60;98889.41;4807993;28;104016;-75
2023/04/05 03:03:39;;;;;;;;;43.00;37.25;;;;;-3.28;84.49;98889.09;4798491;28;102662;-76
2023/04/05 03:06:09;;;;;;;;;33.33;24.67;;;;;-3.23;84.25;98877.25;4806560;29;102995;-76
2023/04/05 03:08:45;;;;;;;;;19.00;14.67;;;;;-3.22;83.88;98872.81;4801167;29;102370;-76
2023/04/05 03:11:12;;;;;;;;;44.00;32.67;;;;;-3.18;84.10;98879.56;4802532;28;104046;-76
2023/04/05 03:13:39;;;;;;;;;35.00;26.00;;;;;-3.14;83.47;98883.66;4807536;28;102251;-76
2023/04/05 03:16:06;;;;;;;;;26.67;19.00;;;;;-3.12;83.16;98879.13;4798743;29;101935;-76
2023/04/05 03:18:34;;;;;;;;;27.67;21.33;;;;;-3.14;82.91;98870.44;4804431;29;102632;-76
2023/04/05 03:21:03;;;;;;;;;20.33;19.00;;;;;-3.16;82.94;98867.09;4801643;28;104117;-76
2023/04/05 03:23:31;;;;;;;;;11.67;11.67;;;;;-3.18;82.19;98867.19;4802861;28;102705;-75
2023/04/05 03:26:01;;;;;;;;;16.67;14.00;;;;;-3.17;82.62;98871.53;4804610;28;101967;-76
2023/04/05 03:28:33;;;;;;;;;18.33;13.00;;;;;-3.24;84.01;98869.41;4803453;29;102566;-77
2023/04/05 03:31:00;;;;;;;;;20.67;19.00;;;;;-3.24;84.72;98872.03;4803421;29;108580;-74
2023/04/05 03:33:27;;;;;;;;;12.33;12.33;;;;;-3.22;84.45;98872.81;4801763;29;102852;-77
2023/04/05 03:35:54;;;;;;;;;23.33;19.33;;;;;-3.35;83.71;98877.25;4806299;28;103315;-78
2023/04/05 03:38:21;;;;;;;;;20.67;16.33;;;;;-3.32;85.35;98884.97;4824335;29;102553;-77
2023/04/05 03:40:48;;;;;;;;;19.00;16.00;;;;;-3.33;83.96;98880.66;4805731;28;103058;-77
2023/04/05 03:43:15;;;;;;;;;16.67;13.00;;;;;-3.40;84.71;98871.44;4806464;28;102165;-77
2023/04/05 03:45:42;;;;;;;;;20.67;10.00;;;;;-3.40;84.43;98889.94;4802206;28;101916;-77
2023/04/05 03:48:09;;;;;;;;;14.67;13.00;;;;;-3.45;85.29;98881.50;4824291;28;102153;-77
2023/04/05 03:50:36;;;;;;;;;23.67;18.33;;;;;-3.45;84.79;98884.13;4798855;28;104225;-77
2023/04/05 03:53:03;;;;;;;;;14.00;7.67;;;;;-3.47;84.85;98886.06;4805671;29;102112;-76
2023/04/05 03:55:31;;;;;;;;;18.33;15.67;;;;;-3.59;84.18;98874.53;4806418;29;102393;-76
2023/04/05 03:57:58;;;;;;;;;18.00;12.00;;;;;-3.61;84.15;98877.28;4822795;29;102228;-77
2023/04/05 04:00:25;;;;;;;;;16.00;13.00;;;;;-3.74;85.25;98871.13;4808588;28;108354;-77
2023/04/05 04:02:52;;;;;;;;;70.00;51.25;;;;;-3.93;88.30;98898.91;4800479;28;102336;-77
2023/04/05 04:05:20;;;;;;;;;74.00;53.75;;;;;-4.11;88.75;98871.97;4805754;28;102436;-76
2023/04/05 04:07:47;;;;;;;;;69.50;51.50;;;;;-4.03;90.57;98892.56;4806936;28;101942;-77
2023/04/05 04:10:18;;;;;;;;;65.25;49.25;;;;;-4.02;91.63;98891.63;4802754;29;105546;-78
2023/04/05 04:12:45;;;;;;;;;66.75;48.00;;;;;-3.97;91.48;98889.50;4805589;28;102420;-78
2023/04/05 04:15:12;;;;;;;;;56.25;43.00;;;;;-3.88;91.26;98884.47;4798943;28;102934;-77
2023/04/05 04:17:39;;;;;;;;;39.33;29.33;;;;;-3.83;89.78;98874.44;4808832;29;103064;-78
2023/04/05 04:20:09;;;;;;;;;45.25;37.00;;;;;-3.82;89.06;98867.31;4804261;29;104014;-78
2023/04/05 04:22:39;;;;;;;;;40.50;33.50;;;;;-3.74;88.43;98870.31;4806521;28;102622;-78
2023/04/05 04:25:09;;;;;;;;;30.00;28.67;;;;;-3.72;87.95;98879.81;4802540;28;102313;-75
2023/04/05 04:27:38;;;;;;;;;29.67;20.00;;;;;-3.76;88.86;98873.06;4797807;29;102454;-76
2023/04/05 04:30:09;;;;;;;;;31.67;24.67;;;;;-3.78;88.05;98874.13;4807208;28;104145;-77
2023/04/05 04:32:50;;;;;;;;;44.00;34.00;;;;;-3.79;89.04;98873.28;4799211;28;102268;-78
2023/04/05 04:35:25;;;;;;;;;50.25;40.50;;;;;-3.81;89.56;98891.00;4798774;28;102247;-78
2023/04/05 04:37:59;;;;;;;;;46.50;35.75;;;;;-3.76;89.19;98886.25;4805125;29;102553;-78
2023/04/05 04:40:39;;;;;;;;;50.00;36.00;;;;;-3.76;90.41;98890.69;4805859;29;108617;-78
2023/04/05 04:43:16;;;;;;;;;55.50;45.00;;;;;-3.79;89.61;98883.00;4805348;28;102432;-78
2023/04/05 04:45:46;;;;;;;;;48.75;37.25;;;;;-3.67;89.45;98890.91;4804472;28;102157;-78
2023/04/05 04:48:16;;;;;;;;;49.25;39.00;;;;;-3.56;88.61;98886.69;4807889;28;102154;-78
2023/04/05 04:50:44;;;;;;;;;49.33;36.33;;;;;-3.47;87.89;98891.34;4797354;28;104276;-78
2023/04/05 04:53:12;;;;;;;;;35.25;30.50;;;;;-3.40;87.60;98884.66;4798397;29;102911;-77
2023/04/05 04:55:42;;;;;;;;;55.75;46.25;;;;;-3.39;87.75;98876.63;4802390;28;102391;-78
2023/04/05 04:58:11;;;;;;;;;54.75;45.50;;;;;-3.29;87.78;98882.94;4800289;29;102505;-78
2023/04/05 05:00:40;;;;;;;;;61.25;47.75;;;;;-3.34;87.07;98860.47;4800935;28;104202;-77
2023/04/05 05:03:10;;;;;;;;;60.75;47.50;;;;;-3.14;87.62;98881.03;4798944;29;102379;-78
2023/04/05 05:05:49;;;;;;;;;56.75;45.00;;;;;-3.06;87.34;98877.84;4798624;28;102222;-77
2023/04/05 05:08:16;;;;;;;;;45.75;39.75;;;;;-2.98;86.01;98886.09;4802157;28;102171;-76
2023/04/05 05:10:51;;;;;;;;;51.00;43.00;;;;;-2.97;86.48;98880.66;4804747;28;104191;-76
2023/04/05 05:13:18;;;;;;;;;38.67;31.67;;;;;-2.79;87.05;98883.78;4807678;28;102484;-76
2023/04/05 05:15:45;;;;;;;;;33.67;28.67;;;;;-2.63;85.29;98883.53;4806152;28;102101;-76
2023/04/05 05:18:12;;;;;;;;;33.00;23.67;;;;;-2.48;84.71;98891.22;4821398;29;102445;-76
2023/04/05 05:20:40;;;;;;;;;26.00;20.33;;;;;-2.34;84.66;98895.47;4820724;29;104099;-74
2023/04/05 05:23:07;;;;;;;;;21.67;19.00;;;;;-2.31;82.80;98884.66;4805160;28;102200;-74
2023/04/05 05:25:34;;;;;;;;;37.33;30.67;;;;;-2.28;81.88;98895.88;4798592;29;102417;-76
2023/04/05 05:28:04;;;;;;;;;52.25;43.00;;;;;-2.19;81.68;98889.03;4810761;28;102030;-75
2023/04/05 05:30:32;;;;;;;;;43.33;40.33;;;;;-2.13;81.10;98907.13;4810703;28;104223;-72
2023/04/05 05:33:00;;;;;;;;;68.50;51.00;;;;;-2.27;82.04;98894.06;4811489;28;102209;-74
2023/04/05 05:35:27;;;;;;;;;56.00;44.33;;;;;-2.18;79.83;98890.75;4814273;29;102205;-75
2023/04/05 05:37:54;;;;;;;;;49.33;32.67;;;;;-1.96;79.25;98904.06;4807669;28;102294;-74
2023/04/05 05:40:21;;;;;;;;;41.00;33.67;;;;;-1.80;79.98;98901.09;4816856;28;104116;-74
2023/04/05 05:42:48;;;;;;;;;25.00;23.00;;;;;-1.64;78.24;98903.44;4817696;28;102392;-73
2023/04/05 05:45:15;;;;;;;;;19.67;17.33;;;;;-1.54;77.15;98899.97;4809400;28;102207;-72
2023/04/05 05:47:42;;;;;;;;;24.00;17.00;;;;;-1.57;76.42;98870.16;4810862;28;103687;-73
2023/04/05 05:50:09;;;;;;;;;17.00;15.33;;;;;-1.32;77.20;98893.84;4804499;28;104329;-73
2023/04/05 05:52:36;;;;;;;;;14.33;12.67;;;;;-1.17;76.88;98905.06;4813498;28;102276;-74
2023/04/05 05:55:04;;;;;;;;;20.00;15.67;;;;;-1.08;77.63;98891.91;4794841;29;102095;-73
2023/04/05 05:57:31;;;;;;;;;12.67;11.00;;;;;-1.08;76.85;98885.78;4816237;29;105134;-72
2023/04/05 05:59:58;;;;;;;;;20.33;18.33;;;;;-0.98;76.32;98892.88;4801446;28;108563;-72
2023/04/05 06:02:26;;;;;;;;;22.00;18.33;;;;;-0.88;76.99;98898.28;4819936;28;102930;-71
2023/04/05 06:04:53;;;;;;;;;15.33;12.00;;;;;-0.82;76.31;98891.66;4807250;29;103033;-73
2023/04/05 06:07:21;;;;;;;;;14.67;11.33;;;;;-0.78;75.86;98896.59;4795526;28;102304;-72
2023/04/05 06:09:48;;;;;;;;;23.00;22.00;;;;;-0.79;75.53;98892.25;4809548;28;103946;-72
2023/04/05 06:12:15;;;;;;;;;23.33;19.67;;;;;-0.73;76.79;98897.06;4806774;28;102707;-72
2023/04/05 06:14:42;;;;;;;;;9.00;8.00;;;;;-0.77;75.76;98881.50;4802141;28;102646;-73
2023/04/05 06:17:09;;;;;;;;;15.00;12.67;;;;;-0.64;76.47;98892.81;4809306;28;102021;-71
2023/04/05 06:19:36;;;;;;;;;12.00;11.00;;;;;-0.54;74.26;98901.75;4798518;28;105731;-71
2023/04/05 06:22:03;;;;;;;;;15.33;14.00;;;;;-0.51;73.71;98896.19;4811713;28;102334;-72
2023/04/05 06:24:30;;;;;;;;;9.00;8.00;;;;;-0.57;73.20;98880.72;4808537;29;102537;-71
2023/04/05 06:26:58;;;;;;;;;12.33;9.67;;;;;-0.38;72.44;98899.53;4811380;28;102043;-72
2023/04/05 06:29:25;;;;;;;;;11.33;11.33;;;;;-0.28;71.36;98900.47;4801375;29;104000;-72
2023/04/05 06:31:53;;;;;;;;;24.67;18.33;;;;;-0.28;71.77;98889.84;4801444;28;102160;-71
2023/04/05 06:34:20;;;;;;;;;36.33;30.00;;;;;-0.14;71.27;98908.16;4807970;28;102064;-71
2023/04/05 06:36:47;;;;;;;;;41.67;32.67;;;;;-0.04;72.45;98898.41;4799437;28;102162;-71
2023/04/05 06:39:14;;;;;;;;;41.00;34.00;;;;;-0.07;70.94;98890.72;4808138;29;104052;-71
2023/04/05 06:41:41;;;;;;;;;50.00;39.33;;;;;0.32;71.62;98913.13;4800956;28;102101;-71
2023/04/05 06:44:08;;;;;;;;;46.67;37.67;;;;;0.45;67.16;98849.09;4799056;28;102027;-71
2023/04/05 06:46:35;;;;;;;;;40.33;34.67;;;;;0.90;67.04;98901.00;4805317;28;102654;-71
2023/04/05 06:49:02;;;;;;;;;47.00;37.67;;;;;0.84;66.76;98901.53;4796358;29;104221;-70
2023/04/05 06:51:30;;;;;;;;;49.33;39.67;;;;;1.08;67.07;98901.19;4811033;29;102540;-70
2023/04/05 06:53:57;;;;;;;;;45.33;38.00;;;;;1.06;66.31;98902.31;4802861;28;102343;-71
2023/04/05 06:56:24;;;;;;;;;35.00;29.33;;;;;1.28;67.70;98889.66;4804505;28;103153;-69
2023/04/05 06:58:51;;;;;;;;;49.00;38.67;;;;;1.52;65.37;98894.63;4802228;29;104071;-70
2023/04/05 07:01:19;;;;;;;;;28.33;25.00;;;;;1.62;63.70;98894.66;4796727;28;102196;-70
2023/04/05 07:03:46;;;;;;;;;59.67;46.00;;;;;1.39;63.67;98904.69;4809616;28;102133;-70
2023/04/05 07:06:13;;;;;;;;;76.33;57.67;;;;;0.54;66.50;98901.50;4800517;28;102180;-70
2023/04/05 07:08:40;;;;;;;;;71.33;52.00;;;;;0.73;65.46;98884.78;4817017;28;104012;-70
2023/04/05 07:11:07;;;;;;;;;58.33;46.67;;;;;0.99;65.75;98895.88;4822428;28;102425;-71
2023/04/05 07:13:34;;;;;;;;;48.33;39.67;;;;;1.28;65.08;98904.78;4798012;28;102243;-71
2023/04/05 07:16:02;;;;;;;;;60.67;48.00;;;;;1.10;64.22;98907.25;4809398;28;104791;-71
2023/04/05 07:18:29;;;;;;;;;74.67;58.67;;;;;0.77;65.06;98902.19;4797383;28;104498;-71
2023/04/05 07:21:02;;;;;;;;;88.50;66.00;;;;;0.36;66.45;98882.63;4809322;28;103205;-70
2023/04/05 07:23:30;;;;;;;;;71.33;56.67;;;;;0.69;66.37;98908.16;4800912;28;102019;-71
2023/04/05 07:26:04;;;;;;;;;70.00;53.67;;;;;0.83;65.45;98909.66;4801914;28;102223;-70
2023/04/05 07:28:34;;;;;;;;;64.33;52.67;;;;;0.83;65.44;98901.66;4802781;29;108654;-70
2023/04/05 07:31:02;;;;;;;;;82.33;59.33;;;;;0.72;66.76;98909.75;4802617;28;102177;-70
2023/04/05 07:33:30;;;;;;;;;75.67;56.00;;;;;1.02;66.47;98890.25;4805776;29;102473;-71
2023/04/05 07:35:57;;;;;;;;;63.00;52.67;;;;;1.37;64.56;98900.47;4798751;28;102279;-71
2023/04/05 07:38:26;;;;;;;;;80.67;58.00;;;;;1.59;64.31;98895.75;4810611;28;104320;-71
2023/04/05 07:40:53;;;;;;;;;79.50;58.25;;;;;2.06;64.27;98898.63;4804950;29;102337;-72
2023/04/05 07:43:20;;;;;;;;;77.33;57.33;;;;;1.86;62.36;98903.09;4801296;28;102074;-71
2023/04/05 07:45:47;;;;;;;;;74.67;55.00;;;;;1.90;62.09;98898.31;4805278;28;102328;-71
2023/04/05 07:48:14;;;;;;;;;63.00;50.67;;;;;2.00;61.73;98900.03;4796680;29;104002;-72
2023/04/05 07:50:46;;;;;;;;;60.33;47.33;;;;;1.97;62.17;98894.13;4811559;28;102732;-72
2023/04/05 07:53:13;;;;;;;;;80.00;60.00;;;;;1.53;62.24;98890.97;4820204;28;101995;-71
2023/04/05 07:55:41;;;;;;;;;72.33;55.00;;;;;1.77;63.99;98895.91;4806070;29;102413;-72
2023/04/05 07:58:08;;;;;;;;;64.00;50.67;;;;;2.21;62.73;98889.19;4802040;29;103991;-73
2023/04/05 08:00:35;;;;;;;;;65.67;52.00;;;;;2.19;60.38;98901.84;4802610;28;102239;-72
2023/04/05 08:03:03;;;;;;;;;64.33;50.33;;;;;2.40;59.86;98891.84;4810341;28;102271;-73
2023/04/05 08:05:30;;;;;;;;;67.67;46.33;;;;;2.50;59.44;98895.34;4799488;29;101984;-72
2023/04/05 08:07:57;;;;;;;;;71.33;52.00;;;;;2.52;61.19;98893.38;4810776;28;108132;-71
2023/04/05 08:10:25;;;;;;;;;55.00;42.00;;;;;2.81;57.76;98889.78;4799769;29;102787;-71
2023/04/05 08:12:53;;;;;;;;;61.33;45.00;;;;;1.77;59.69;98891.44;4803078;28;102264;-71
2023/04/05 08:15:20;;;;;;;;;68.67;51.00;;;;;1.72;60.31;98891.00;4827948;29;102394;-72
2023/04/05 08:17:47;;;;;;;;;56.67;42.67;;;;;2.39;59.65;98887.50;4795266;28;105292;-72
2023/04/05 08:20:14;;;;;;;;;60.00;44.00;;;;;2.48;58.23;98883.13;4808794;28;102524;-73
2023/04/05 08:22:41;;;;;;;;;69.67;50.00;;;;;1.95;59.24;98890.75;4802076;28;101971;-71
2023/04/05 08:25:09;;;;;;;;;63.67;51.00;;;;;1.93;60.50;98893.56;4802936;28;102331;-72
2023/04/05 08:27:36;;;;;;;;;63.33;50.00;;;;;2.24;59.57;98875.59;4797710;29;103748;-72
2023/04/05 08:30:04;;;;;;;;;74.33;52.67;;;;;2.06;60.28;98863.94;4794309;28;102418;-72
2023/04/05 08:32:31;;;;;;;;;46.00;41.00;;;;;2.70;60.71;98878.28;4808988;29;101966;-73
2023/04/05 08:34:59;;;;;;;;;66.33;51.67;;;;;2.79;57.57;98873.09;4799285;28;102103;-73
2023/04/05 08:37:26;;;;;;;;;49.67;38.33;;;;;3.31;58.14;98869.78;4812307;28;103996;-72
2023/04/05 08:39:54;;;;;;;;;46.67;39.67;;;;;3.70;54.80;98858.81;4800705;28;102094;-73
2023/04/05 08:42:36;;;;;;;;;46.00;35.75;;;;;4.33;52.40;98867.59;4802569;28;102621;-72
2023/04/05 08:45:08;;;;;;;;;22.75;20.25;;;;;4.84;51.28;98861.44;4818940;28;102076;-73
2023/04/05 08:47:37;;;;;;;;;16.50;16.50;;;;;4.86;52.45;98846.06;4793571;28;103990;-73
2023/04/05 08:50:05;;;;;;;;;41.50;35.00;;;;;4.06;49.00;98863.19;4803872;28;102302;-72
2023/04/05 08:52:36;;;;;;;;;28.50;21.00;;;;;4.13;50.07;98869.63;4798366;28;102114;-73
2023/04/05 08:55:05;;;;;;;;;36.00;29.75;;;;;3.26;53.59;98873.88;4803919;28;102162;-71
2023/04/05 08:57:35;;;;;;;;;41.50;36.75;;;;;3.02;54.57;98867.22;4801501;29;104306;-72
2023/04/05 09:00:03;;;;;;;;;22.25;20.75;;;;;2.91;50.96;98863.91;4800126;28;105523;-72
2023/04/05 09:02:32;;;;;;;;;24.25;20.50;;;;;2.86;48.82;98859.00;4802373;29;102070;-72
2023/04/05 09:04:59;;;;;;;;;18.00;16.75;;;;;2.73;52.00;98858.50;4810364;29;102307;-72
2023/04/05 09:07:30;;;;;;;;;17.50;16.00;;;;;3.10;52.56;98867.34;4810771;29;104184;-72
2023/04/05 09:09:59;;;;;;;;;15.75;11.50;;;;;3.34;47.80;98866.78;4799753;28;102085;-72
2023/04/05 09:12:27;;;;;;;;;17.00;16.25;;;;;3.50;48.80;98867.00;4805441;28;102356;-72
2023/04/05 09:14:54;;;;;;;;;15.75;11.50;;;;;3.59;48.53;98865.25;4802894;28;102027;-72
2023/04/05 09:17:22;;;;;;;;;21.50;20.50;;;;;3.23;47.77;98863.50;4795847;29;104077;-71
2023/04/05 09:19:49;;;;;;;;;19.50;17.75;;;;;3.30;50.85;98876.09;4807788;29;102702;-72
2023/04/05 09:22:17;;;;;;;;;20.00;16.00;;;;;3.31;49.87;98863.59;4817529;28;102799;-72
2023/04/05 09:24:45;;;;;;;;;14.75;12.75;;;;;3.19;46.29;98873.63;4805947;29;102478;-72
2023/04/05 09:27:17;;;;;;;;;18.50;16.25;;;;;3.03;48.40;98870.75;4796050;29;104200;-71
2023/04/05 09:29:46;;;;;;;;;17.25;13.00;;;;;2.97;46.66;98858.00;4801528;29;102040;-71
2023/04/05 09:32:14;;;;;;;;;11.00;10.00;;;;;3.00;48.57;98869.22;4805786;29;101852;-72
2023/04/05 09:34:42;;;;;;;;;15.75;12.50;;;;;2.92;45.42;98865.59;4793185;29;102915;-71
2023/04/05 09:37:16;;;;;;;;;13.75;12.00;;;;;2.83;47.10;98855.78;4804962;29;103978;-71
2023/04/05 09:39:44;;;;;;;;;12.00;10.00;;;;;3.49;45.01;98859.13;4821546;28;102486;-72
2023/04/05 09:42:12;;;;;;;;;12.75;10.75;;;;;3.95;45.93;98860.78;4805238;28;102097;-72
2023/04/05 09:45:03;;;;;;;;;11.75;10.00;;;;;4.05;44.58;98859.69;4802951;29;102255;-72
2023/04/05 09:47:35;;;;;;;;;19.00;13.50;;;;;4.59;44.90;98848.91;4823901;28;108872;-73
2023/04/05 09:50:16;;;;;;;;;18.00;16.50;;;;;4.57;46.72;98853.56;4806064;29;102313;-72
2023/04/05 09:52:44;;;;;;;;;17.00;12.50;;;;;4.58;43.81;98842.72;4794059;29;102004;-73
2023/04/05 09:55:12;;;;;;;;;17.50;15.50;;;;;4.69;41.07;98844.25;4805753;28;102406;-73
2023/04/05 09:57:42;;;;;;;;;17.75;14.25;;;;;4.30;41.97;98847.34;4794700;29;104172;-73
2023/04/05 10:00:18;;;;;;;;;17.50;16.50;;;;;4.56;43.37;98844.69;4805142;29;101978;-73
2023/04/05 10:02:46;;;;;;;;;16.25;13.00;;;;;4.63;38.95;98839.56;4799003;29;102244;-73
2023/04/05 10:05:14;;;;;;;;;13.75;12.25;;;;;5.03;39.12;98829.06;4817468;28;102597;-73
2023/04/05 10:07:42;;;;;;;;;10.50;8.00;;;;;5.48;42.46;98839.47;4798741;29;104889;-73
2023/04/05 10:10:11;;;;;;;;;20.00;16.00;;;;;5.07;44.28;98837.63;4792135;29;102112;-73
2023/04/05 10:12:40;;;;;;;;;20.50;18.00;;;;;4.30;43.10;98817.91;4807439;29;102401;-72
2023/04/05 10:15:08;;;;;;;;;21.25;19.00;;;;;3.79;45.42;98840.03;4799529;29;102319;-73
2023/04/05 10:17:48;;;;;;;;;23.75;19.00;;;;;3.27;45.34;98844.34;4811460;28;103935;-73
2023/04/05 10:20:18;;;;;;;;;19.75;18.25;;;;;3.26;45.53;98837.31;4800900;28;102307;-72
2023/04/05 10:22:51;;;;;;;;;19.50;18.00;;;;;3.44;47.12;98840.84;4802960;28;102224;-72
2023/04/05 10:25:31;;;;;;;;;19.75;17.25;;;;;3.94;45.41;98835.84;4807356;29;102480;-72
2023/04/05 10:28:10;;;;;;;;;17.00;15.50;;;;;4.34;47.97;98829.13;4797789;29;108843;-72
2023/04/05 10:30:45;;;;;;;;;21.00;16.00;;;;;4.59;45.70;98824.81;4808054;28;102134;-72
2023/04/05 10:33:33;;;;;;;;;20.25;18.25;;;;;4.46;42.00;98827.88;4801317;28;102374;-73
2023/04/05 10:36:07;;;;;;;;;14.00;12.50;;;;;4.72;43.75;98818.03;4814313;28;102228;-72
2023/04/05 10:38:58;;;;;;;;;16.50;14.50;;;;;4.88;47.00;98818.09;4797469;28;108909;-72
2023/04/05 10:41:26;;;;;;;;;22.75;21.00;;;;;4.85;45.47;98828.31;4804503;28;102043;-73
2023/04/05 10:43:55;;;;;;;;;23.00;20.50;;;;;4.11;45.46;98823.44;4802126;28;102013;-73
2023/04/05 10:46:23;;;;;;;;;22.00;19.75;;;;;3.73;45.52;98832.66;4801193;28;108971;-71
2023/04/05 10:49:15;;;;;;;;;22.00;19.75;;;;;3.75;46.42;98837.81;4811310;28;104233;-72
2023/04/05 10:51:43;;;;;;;;;20.25;17.00;;;;;3.75;45.82;98816.44;4795113;28;102395;-72
2023/04/05 10:54:10;;;;;;;;;18.00;18.00;;;;;3.74;44.83;98814.78;4810174;28;102322;-72
2023/04/05 10:56:39;;;;;;;;;23.50;22.00;;;;;3.97;42.88;98818.63;4805015;28;102429;-72
2023/04/05 10:59:07;;;;;;;;;21.00;18.75;;;;;4.35;42.96;98815.63;4807244;28;104253;-72
2023/04/05 11:01:37;;;;;;;;;16.25;14.25;;;;;4.68;41.94;98807.78;4798942;28;102315;-73
2023/04/05 11:04:12;;;;;;;;;25.25;20.75;;;;;4.64;43.67;98809.13;4799982;28;102243;-72
2023/04/05 11:06:40;;;;;;;;;17.25;15.50;;;;;4.32;44.06;98796.34;4804096;28;101942;-73
2023/04/05 11:09:13;;;;;;;;;17.25;12.00;;;;;4.96;43.45;98811.94;4794527;28;104108;-70
2023/04/05 11:11:43;;;;;;;;;14.00;12.75;;;;;5.16;43.15;98791.94;4802690;29;102197;-71
2023/04/05 11:14:32;;;;;;;;;10.25;8.00;;;;;5.54;41.97;98793.19;4801553;28;102734;-72
2023/04/05 11:17:00;;;;;;;;;12.50;12.25;;;;;5.63;38.22;98805.63;4820593;28;102092;-72
2023/04/05 11:19:42;;;;;;;;;9.50;9.00;;;;;5.32;38.99;98807.22;4816192;28;104041;-71
2023/04/05 11:22:10;;;;;;;;;14.75;13.75;;;;;5.13;40.93;98811.03;4798756;28;102461;-71
2023/04/05 11:24:57;;;;;;;;;20.50;17.50;;;;;4.72;42.85;98809.16;4811471;28;102193;-72
2023/04/05 11:27:29;;;;;;;;;15.25;13.25;;;;;4.38;42.49;98811.78;4818551;28;101976;-72
2023/04/05 11:30:01;;;;;;;;;15.75;13.00;;;;;4.34;42.54;98807.72;4817362;29;103129;-72